Ararat, Virginia
Current Conditions -  °F | °C
As of 2:35 PM on Tuesday 21 Oct 2014 (Local Time) from KMWK Reporting Station
Scattered Clouds Scattered Clouds  
Wind Chill: 20°   Ceiling: Unl
Heat Index: 20°   Visibility: 10mi
Dew Point:   Wind: 7mph
Humidity: 40%   Direction: 270°W
Pressure: 29.9"   Gusts: NA
Location:  36.6°N, 80.51°W
Report Text: KMWK 211835Z AUTO 27006KT 10SM SCT080 20/06 A2990 RMK AO2 T02010061
Loading
Personal Weather Stations






























Interactive Weather Map New forecast layout! Learn more

10-Day Weather Forecast

Advertisements
Track Severe Weather on mobile